Rising Sun, Ohio
Current Conditions -  °F | °C
As of 8:53 PM on Thursday 18 Dec 2014 (Local Time) from KTDZ Reporting Station
Overcast Overcast  
Wind Chill: 23°   Ceiling: 1500
Heat Index: 31°   Visibility: 9mi
Dew Point: 25°   Wind: 9mph
Humidity: 79%   Direction: 270°W
Pressure: 30.2"   Gusts: NA
Location:  41.2686°N, 83.4288°W
Report Text: KTDZ 190153Z AUTO 27008KT 9SM BKN015 OVC025 M01/M04 A3020 RMK AO2 SLP234 T10061039 TSNO
Loading
Personal Weather Stations






























Interactive Weather Map New forecast layout! Learn more

10-Day Weather Forecast

Advertisements
Track Severe Weather on mobile